Airfield :
LOGIN :

Register | Disclaimer

   EN    FR    IT 

 










Legend :    VFR   Marginal VFR   IFR   Intensive IFR   Very Intensive IFR
Visi :
Ceiling :
>= 8 km
>= 3000ft
5 to 8 km
1000 to 3000 ft
1500m to 5 km
500 to 1000 ft
800 to 1500m
200 to 500 ft
< 800m
< 200 ft
Symbols :   Thunderstorms  Fog  Heavy snow  Heavy precipitations  Wind > 20 kt
SIGMETs :     Misc.  Thunderstorms  Icing  Turbulence  Mountain Waves  Volcanic Ashes







- Airport Elevation : 28 ft
- IATA code : SOZ
- Download approach charts


LFKS - Solenzara

CURRENT METAR :
  • 230000Z AUTO 29013G24KT 230V350 CAVOK 18/03 Q1012

EXPIRED METARs :
  • 222330Z AUTO 28014G27KT 240V320 CAVOK 18/03 Q1011
  • 222300Z AUTO 27011G22KT 220V320 CAVOK 18/03 Q1011
  • 222230Z AUTO 29009KT 240V020 CAVOK 19/02 Q1012
  • 222200Z AUTO 31009G20KT 240V360 CAVOK 18/01 Q1012
  • 222130Z AUTO 29006KT 240V040 CAVOK 18/01 Q1011

TAF AMD TAF LFKS
Valid from the 22 at 16:00 until the 23 at 15:00 UTC


221602Z 2216/2315 28015G25KT CAVOK
TEMPO 2216/2220 28020G40KT
BECMG 2303/2304 28005KT
No reported NOTAMs for that airfield.
2 SIGMETs reported for the Marseille FIR (LFMM) :
 
Severe turbulence
LFMM SIGMET 18 VALID 222300/230300 LFPW
LFMM MARSEILLE FIR/UIR SEV TURB FCST WI N4200 E00945 - N4115 E00945 - N4115 E00800 - N4015 E00800 - N4345 E00430 - N4400 E00645 SFC/FL060 MOV S 15KT NC=
Severe turbulence
LFMM SIGMET 17 VALID 222300/230300 LFPW
LFMM MARSEILLE FIR/UIR SEV TURB FCST WI N4630 E00515 - N4630 E00700 - N4400 E00700 - N4345 E00815 - N4315 E00700 FL220/320 MOV E 15KT NC=



MET'MAP, your aeronautical weather chart ! - Copyright ORBIFLY December 2007 - Disclaimer

ORBIFLY MET'MAP TEAM :

Programming & Development : Alexandra Zaïnal
Concept & Development : Baudouin d'Aumeries
Co-Development & Prog : Marc-Olivier Méhu
Technical & hardware support : Manuel Goepfert

Contact : metmap@orbifly.com




SOURCES & CREDITS :

   NOAA